sensor_id;sensor_type;location;lat;lon;timestamp;P1;durP1;ratioP1;P2;durP2;ratioP2
18681;SDS011;9471;51.168;4.154;2022-09-09T00:00:34;7.88;;;2.40;;
18681;SDS011;9471;51.168;4.154;2022-09-09T00:03:14;9.30;;;2.92;;
18681;SDS011;9471;51.168;4.154;2022-09-09T00:05:44;11.52;;;2.90;;
18681;SDS011;9471;51.168;4.154;2022-09-09T00:08:22;12.57;;;3.25;;
18681;SDS011;9471;51.168;4.154;2022-09-09T00:11:00;10.45;;;2.90;;
18681;SDS011;9471;51.168;4.154;2022-09-09T00:13:33;11.45;;;2.85;;
18681;SDS011;9471;51.168;4.154;2022-09-09T00:16:07;10.35;;;2.78;;
18681;SDS011;9471;51.168;4.154;2022-09-09T00:18:45;9.52;;;2.80;;
18681;SDS011;9471;51.168;4.154;2022-09-09T00:21:18;9.05;;;2.80;;
18681;SDS011;9471;51.168;4.154;2022-09-09T00:23:50;8.65;;;2.53;;
18681;SDS011;9471;51.168;4.154;2022-09-09T00:26:22;10.65;;;2.85;;
18681;SDS011;9471;51.168;4.154;2022-09-09T00:28:57;10.77;;;2.30;;
18681;SDS011;9471;51.168;4.154;2022-09-09T00:31:31;7.57;;;2.30;;
18681;SDS011;9471;51.168;4.154;2022-09-09T00:33:58;10.57;;;2.33;;
18681;SDS011;9471;51.168;4.154;2022-09-09T00:36:38;9.32;;;2.63;;
18681;SDS011;9471;51.168;4.154;2022-09-09T00:39:05;8.43;;;2.70;;
18681;SDS011;9471;51.168;4.154;2022-09-09T00:41:47;10.85;;;2.45;;
18681;SDS011;9471;51.168;4.154;2022-09-09T00:44:27;11.63;;;2.30;;
18681;SDS011;9471;51.168;4.154;2022-09-09T00:47:04;12.15;;;2.20;;
18681;SDS011;9471;51.168;4.154;2022-09-09T00:49:46;7.85;;;2.08;;
18681;SDS011;9471;51.168;4.154;2022-09-09T00:52:26;8.45;;;1.90;;
18681;SDS011;9471;51.168;4.154;2022-09-09T00:55:03;7.07;;;2.05;;
18681;SDS011;9471;51.168;4.154;2022-09-09T00:57:38;6.90;;;1.95;;
18681;SDS011;9471;51.168;4.154;2022-09-09T01:00:22;10.45;;;2.40;;
18681;SDS011;9471;51.168;4.154;2022-09-09T01:02:58;9.95;;;2.20;;
18681;SDS011;9471;51.168;4.154;2022-09-09T01:05:39;10.35;;;2.67;;
18681;SDS011;9471;51.168;4.154;2022-09-09T01:08:14;9.48;;;2.13;;
18681;SDS011;9471;51.168;4.154;2022-09-09T01:10:55;11.57;;;2.55;;
18681;SDS011;9471;51.168;4.154;2022-09-09T01:13:27;9.65;;;2.10;;
18681;SDS011;9471;51.168;4.154;2022-09-09T01:15:56;10.60;;;1.90;;
18681;SDS011;9471;51.168;4.154;2022-09-09T01:18:26;8.88;;;2.50;;
18681;SDS011;9471;51.168;4.154;2022-09-09T01:21:01;11.38;;;2.20;;
18681;SDS011;9471;51.168;4.154;2022-09-09T01:23:40;9.80;;;2.10;;
18681;SDS011;9471;51.168;4.154;2022-09-09T01:26:33;7.50;;;1.92;;
18681;SDS011;9471;51.168;4.154;2022-09-09T01:29:02;11.27;;;2.28;;
18681;SDS011;9471;51.168;4.154;2022-09-09T01:31:34;8.25;;;1.88;;
18681;SDS011;9471;51.168;4.154;2022-09-09T01:34:07;7.28;;;1.83;;
18681;SDS011;9471;51.168;4.154;2022-09-09T01:36:38;8.07;;;1.80;;
18681;SDS011;9471;51.168;4.154;2022-09-09T01:39:09;7.78;;;1.70;;
18681;SDS011;9471;51.168;4.154;2022-09-09T01:41:38;10.18;;;2.28;;
18681;SDS011;9471;51.168;4.154;2022-09-09T01:44:05;7.75;;;1.80;;
18681;SDS011;9471;51.168;4.154;2022-09-09T01:46:33;7.75;;;1.65;;
18681;SDS011;9471;51.168;4.154;2022-09-09T01:49:00;8.13;;;1.90;;
18681;SDS011;9471;51.168;4.154;2022-09-09T01:51:30;8.40;;;1.33;;
18681;SDS011;9471;51.168;4.154;2022-09-09T01:53:57;11.88;;;2.05;;
18681;SDS011;9471;51.168;4.154;2022-09-09T01:56:28;6.20;;;1.40;;
18681;SDS011;9471;51.168;4.154;2022-09-09T01:59:17;8.98;;;2.30;;
18681;SDS011;9471;51.168;4.154;2022-09-09T02:02:02;9.23;;;2.28;;
18681;SDS011;9471;51.168;4.154;2022-09-09T02:04:39;10.63;;;1.70;;
18681;SDS011;9471;51.168;4.154;2022-09-09T02:07:12;7.43;;;1.77;;
18681;SDS011;9471;51.168;4.154;2022-09-09T02:09:49;8.18;;;2.00;;
18681;SDS011;9471;51.168;4.154;2022-09-09T02:12:22;10.02;;;2.38;;
18681;SDS011;9471;51.168;4.154;2022-09-09T02:14:55;11.10;;;1.95;;
18681;SDS011;9471;51.168;4.154;2022-09-09T02:17:25;9.10;;;2.45;;
18681;SDS011;9471;51.168;4.154;2022-09-09T02:19:57;8.80;;;2.05;;
18681;SDS011;9471;51.168;4.154;2022-09-09T02:22:32;13.23;;;3.17;;
18681;SDS011;9471;51.168;4.154;2022-09-09T02:25:00;12.48;;;2.33;;
18681;SDS011;9471;51.168;4.154;2022-09-09T02:27:30;11.05;;;2.90;;
18681;SDS011;9471;51.168;4.154;2022-09-09T02:29:59;14.48;;;3.38;;
18681;SDS011;9471;51.168;4.154;2022-09-09T02:32:28;12.57;;;2.53;;
18681;SDS011;9471;51.168;4.154;2022-09-09T02:34:57;10.95;;;2.70;;
18681;SDS011;9471;51.168;4.154;2022-09-09T02:37:32;12.07;;;2.88;;
18681;SDS011;9471;51.168;4.154;2022-09-09T02:40:02;8.07;;;2.85;;
18681;SDS011;9471;51.168;4.154;2022-09-09T02:42:30;12.73;;;3.00;;
18681;SDS011;9471;51.168;4.154;2022-09-09T02:44:58;9.27;;;2.90;;
18681;SDS011;9471;51.168;4.154;2022-09-09T02:47:27;14.93;;;3.60;;
18681;SDS011;9471;51.168;4.154;2022-09-09T02:50:01;15.05;;;4.03;;
18681;SDS011;9471;51.168;4.154;2022-09-09T02:52:37;9.55;;;2.65;;
18681;SDS011;9471;51.168;4.154;2022-09-09T02:55:13;12.43;;;2.92;;
18681;SDS011;9471;51.168;4.154;2022-09-09T02:57:48;10.73;;;2.90;;
18681;SDS011;9471;51.168;4.154;2022-09-09T03:00:23;13.60;;;3.22;;
18681;SDS011;9471;51.168;4.154;2022-09-09T03:02:51;11.25;;;3.10;;
18681;SDS011;9471;51.168;4.154;2022-09-09T03:05:18;13.55;;;3.75;;
18681;SDS011;9471;51.168;4.154;2022-09-09T03:07:45;11.35;;;2.80;;
18681;SDS011;9471;51.168;4.154;2022-09-09T03:10:12;13.95;;;3.38;;
18681;SDS011;9471;51.168;4.154;2022-09-09T03:12:39;12.80;;;3.10;;
18681;SDS011;9471;51.168;4.154;2022-09-09T03:15:09;12.07;;;3.15;;
18681;SDS011;9471;51.168;4.154;2022-09-09T03:17:38;13.55;;;3.05;;
18681;SDS011;9471;51.168;4.154;2022-09-09T03:20:05;14.70;;;3.00;;
18681;SDS011;9471;51.168;4.154;2022-09-09T03:22:33;13.88;;;2.95;;
18681;SDS011;9471;51.168;4.154;2022-09-09T03:25:00;10.55;;;2.60;;
18681;SDS011;9471;51.168;4.154;2022-09-09T03:27:27;14.45;;;3.03;;
18681;SDS011;9471;51.168;4.154;2022-09-09T03:29:54;13.90;;;3.05;;
18681;SDS011;9471;51.168;4.154;2022-09-09T03:32:22;14.35;;;3.03;;
18681;SDS011;9471;51.168;4.154;2022-09-09T03:34:52;11.82;;;2.70;;
18681;SDS011;9471;51.168;4.154;2022-09-09T03:37:19;14.77;;;2.90;;
18681;SDS011;9471;51.168;4.154;2022-09-09T03:39:47;12.23;;;2.38;;
18681;SDS011;9471;51.168;4.154;2022-09-09T03:42:15;18.65;;;3.50;;
18681;SDS011;9471;51.168;4.154;2022-09-09T03:44:43;14.65;;;2.70;;
18681;SDS011;9471;51.168;4.154;2022-09-09T03:47:13;14.20;;;2.60;;
18681;SDS011;9471;51.168;4.154;2022-09-09T03:49:40;15.48;;;3.13;;
18681;SDS011;9471;51.168;4.154;2022-09-09T03:52:09;16.80;;;3.08;;
18681;SDS011;9471;51.168;4.154;2022-09-09T03:54:36;16.55;;;3.03;;
18681;SDS011;9471;51.168;4.154;2022-09-09T03:57:04;17.13;;;3.33;;
18681;SDS011;9471;51.168;4.154;2022-09-09T03:59:31;14.95;;;2.95;;
18681;SDS011;9471;51.168;4.154;2022-09-09T04:01:58;9.30;;;2.38;;
18681;SDS011;9471;51.168;4.154;2022-09-09T04:04:25;16.10;;;3.10;;
18681;SDS011;9471;51.168;4.154;2022-09-09T04:06:52;15.75;;;2.92;;
18681;SDS011;9471;51.168;4.154;2022-09-09T04:09:20;14.82;;;2.90;;
18681;SDS011;9471;51.168;4.154;2022-09-09T04:11:48;17.02;;;3.00;;
18681;SDS011;9471;51.168;4.154;2022-09-09T04:14:15;16.15;;;3.50;;
18681;SDS011;9471;51.168;4.154;2022-09-09T04:16:42;17.65;;;2.90;;
18681;SDS011;9471;51.168;4.154;2022-09-09T04:19:09;18.08;;;3.13;;
18681;SDS011;9471;51.168;4.154;2022-09-09T04:21:38;15.63;;;2.55;;
18681;SDS011;9471;51.168;4.154;2022-09-09T04:24:06;12.13;;;2.75;;
18681;SDS011;9471;51.168;4.154;2022-09-09T04:26:35;18.05;;;2.95;;
18681;SDS011;9471;51.168;4.154;2022-09-09T04:29:03;16.88;;;3.10;;
18681;SDS011;9471;51.168;4.154;2022-09-09T04:31:30;19.17;;;3.65;;
18681;SDS011;9471;51.168;4.154;2022-09-09T04:33:57;13.23;;;2.38;;
18681;SDS011;9471;51.168;4.154;2022-09-09T04:36:27;11.23;;;3.00;;
18681;SDS011;9471;51.168;4.154;2022-09-09T04:38:54;19.17;;;3.22;;
18681;SDS011;9471;51.168;4.154;2022-09-09T04:41:21;16.17;;;2.95;;
18681;SDS011;9471;51.168;4.154;2022-09-09T04:43:50;14.48;;;2.80;;
18681;SDS011;9471;51.168;4.154;2022-09-09T04:46:17;19.05;;;3.25;;
18681;SDS011;9471;51.168;4.154;2022-09-09T04:48:44;22.05;;;3.08;;
18681;SDS011;9471;51.168;4.154;2022-09-09T04:51:11;14.77;;;3.00;;
18681;SDS011;9471;51.168;4.154;2022-09-09T04:53:39;18.45;;;2.67;;
18681;SDS011;9471;51.168;4.154;2022-09-09T04:56:07;14.25;;;2.80;;
18681;SDS011;9471;51.168;4.154;2022-09-09T04:58:36;19.20;;;3.00;;
18681;SDS011;9471;51.168;4.154;2022-09-09T05:01:05;14.05;;;2.75;;
18681;SDS011;9471;51.168;4.154;2022-09-09T05:03:33;12.95;;;2.63;;
18681;SDS011;9471;51.168;4.154;2022-09-09T05:06:04;17.80;;;3.00;;
18681;SDS011;9471;51.168;4.154;2022-09-09T05:08:33;11.82;;;2.75;;
18681;SDS011;9471;51.168;4.154;2022-09-09T05:11:00;14.60;;;3.33;;
18681;SDS011;9471;51.168;4.154;2022-09-09T05:13:28;15.38;;;2.88;;
18681;SDS011;9471;51.168;4.154;2022-09-09T05:15:57;9.65;;;2.70;;
18681;SDS011;9471;51.168;4.154;2022-09-09T05:18:25;17.35;;;3.28;;
18681;SDS011;9471;51.168;4.154;2022-09-09T05:20:52;15.10;;;2.88;;
18681;SDS011;9471;51.168;4.154;2022-09-09T05:23:24;18.85;;;3.53;;
18681;SDS011;9471;51.168;4.154;2022-09-09T05:25:55;15.63;;;2.80;;
18681;SDS011;9471;51.168;4.154;2022-09-09T05:28:23;16.73;;;3.28;;
18681;SDS011;9471;51.168;4.154;2022-09-09T05:30:57;11.95;;;2.83;;
18681;SDS011;9471;51.168;4.154;2022-09-09T05:33:27;18.90;;;2.75;;
18681;SDS011;9471;51.168;4.154;2022-09-09T05:35:57;13.57;;;2.55;;
18681;SDS011;9471;51.168;4.154;2022-09-09T05:38:25;14.98;;;3.20;;
18681;SDS011;9471;51.168;4.154;2022-09-09T05:40:52;14.63;;;3.08;;
18681;SDS011;9471;51.168;4.154;2022-09-09T05:43:21;17.92;;;2.92;;
18681;SDS011;9471;51.168;4.154;2022-09-09T05:45:48;13.27;;;3.03;;
18681;SDS011;9471;51.168;4.154;2022-09-09T05:48:28;15.48;;;2.97;;
18681;SDS011;9471;51.168;4.154;2022-09-09T05:50:57;18.75;;;3.55;;
18681;SDS011;9471;51.168;4.154;2022-09-09T05:53:24;15.20;;;3.13;;
18681;SDS011;9471;51.168;4.154;2022-09-09T05:55:57;20.60;;;2.92;;
18681;SDS011;9471;51.168;4.154;2022-09-09T05:58:25;14.50;;;3.00;;
18681;SDS011;9471;51.168;4.154;2022-09-09T06:00:52;13.98;;;2.70;;
18681;SDS011;9471;51.168;4.154;2022-09-09T06:03:26;16.23;;;3.17;;
18681;SDS011;9471;51.168;4.154;2022-09-09T06:05:58;15.00;;;2.88;;
18681;SDS011;9471;51.168;4.154;2022-09-09T06:08:26;15.07;;;2.95;;
18681;SDS011;9471;51.168;4.154;2022-09-09T06:10:53;16.60;;;3.05;;
18681;SDS011;9471;51.168;4.154;2022-09-09T06:13:21;15.65;;;2.92;;
18681;SDS011;9471;51.168;4.154;2022-09-09T06:15:49;15.48;;;3.05;;
18681;SDS011;9471;51.168;4.154;2022-09-09T06:18:17;15.43;;;3.30;;
18681;SDS011;9471;51.168;4.154;2022-09-09T06:20:54;18.65;;;2.92;;
18681;SDS011;9471;51.168;4.154;2022-09-09T06:23:22;13.52;;;2.67;;
18681;SDS011;9471;51.168;4.154;2022-09-09T06:25:49;21.63;;;3.42;;
18681;SDS011;9471;51.168;4.154;2022-09-09T06:28:16;20.20;;;3.13;;
18681;SDS011;9471;51.168;4.154;2022-09-09T06:30:44;13.57;;;2.67;;
18681;SDS011;9471;51.168;4.154;2022-09-09T06:33:12;13.68;;;3.60;;
18681;SDS011;9471;51.168;4.154;2022-09-09T06:35:39;17.50;;;3.67;;
18681;SDS011;9471;51.168;4.154;2022-09-09T06:38:07;17.42;;;3.72;;
18681;SDS011;9471;51.168;4.154;2022-09-09T06:40:34;14.43;;;2.30;;
18681;SDS011;9471;51.168;4.154;2022-09-09T06:43:02;14.15;;;2.40;;
18681;SDS011;9471;51.168;4.154;2022-09-09T06:45:29;18.13;;;2.88;;
18681;SDS011;9471;51.168;4.154;2022-09-09T06:47:56;14.48;;;3.00;;
18681;SDS011;9471;51.168;4.154;2022-09-09T06:50:23;14.05;;;2.58;;
18681;SDS011;9471;51.168;4.154;2022-09-09T06:52:50;21.48;;;4.15;;
18681;SDS011;9471;51.168;4.154;2022-09-09T06:55:18;15.20;;;3.30;;
18681;SDS011;9471;51.168;4.154;2022-09-09T06:57:45;14.30;;;3.05;;
18681;SDS011;9471;51.168;4.154;2022-09-09T07:00:13;17.30;;;3.13;;
18681;SDS011;9471;51.168;4.154;2022-09-09T07:02:40;13.70;;;3.40;;
18681;SDS011;9471;51.168;4.154;2022-09-09T07:05:07;15.13;;;3.00;;
18681;SDS011;9471;51.168;4.154;2022-09-09T07:07:35;16.55;;;3.22;;
18681;SDS011;9471;51.168;4.154;2022-09-09T07:10:03;12.68;;;2.85;;
18681;SDS011;9471;51.168;4.154;2022-09-09T07:12:32;18.20;;;2.90;;
18681;SDS011;9471;51.168;4.154;2022-09-09T07:14:59;19.05;;;3.35;;
18681;SDS011;9471;51.168;4.154;2022-09-09T07:17:26;15.20;;;3.70;;
18681;SDS011;9471;51.168;4.154;2022-09-09T07:19:54;12.15;;;2.53;;
18681;SDS011;9471;51.168;4.154;2022-09-09T07:22:21;14.63;;;3.03;;
18681;SDS011;9471;51.168;4.154;2022-09-09T07:24:50;13.85;;;2.95;;
18681;SDS011;9471;51.168;4.154;2022-09-09T07:27:17;14.77;;;2.75;;
18681;SDS011;9471;51.168;4.154;2022-09-09T07:29:45;16.92;;;2.83;;
18681;SDS011;9471;51.168;4.154;2022-09-09T07:32:12;14.70;;;3.00;;
18681;SDS011;9471;51.168;4.154;2022-09-09T07:34:39;14.18;;;2.88;;
18681;SDS011;9471;51.168;4.154;2022-09-09T07:37:06;16.25;;;2.75;;
18681;SDS011;9471;51.168;4.154;2022-09-09T07:39:36;15.55;;;3.00;;
18681;SDS011;9471;51.168;4.154;2022-09-09T07:42:03;18.42;;;2.83;;
18681;SDS011;9471;51.168;4.154;2022-09-09T07:44:32;16.20;;;2.65;;
18681;SDS011;9471;51.168;4.154;2022-09-09T07:47:01;12.70;;;2.70;;
18681;SDS011;9471;51.168;4.154;2022-09-09T07:49:29;14.68;;;3.25;;
18681;SDS011;9471;51.168;4.154;2022-09-09T07:51:58;14.27;;;2.60;;
18681;SDS011;9471;51.168;4.154;2022-09-09T07:54:25;15.65;;;3.33;;
18681;SDS011;9471;51.168;4.154;2022-09-09T07:56:52;14.40;;;2.70;;
18681;SDS011;9471;51.168;4.154;2022-09-09T07:59:19;15.93;;;2.75;;
18681;SDS011;9471;51.168;4.154;2022-09-09T08:01:47;12.63;;;2.60;;
18681;SDS011;9471;51.168;4.154;2022-09-09T08:04:20;13.02;;;2.72;;
18681;SDS011;9471;51.168;4.154;2022-09-09T08:06:48;13.93;;;2.95;;
18681;SDS011;9471;51.168;4.154;2022-09-09T08:09:18;12.55;;;3.10;;
18681;SDS011;9471;51.168;4.154;2022-09-09T08:11:45;15.18;;;3.55;;
18681;SDS011;9471;51.168;4.154;2022-09-09T08:14:13;12.90;;;2.40;;
18681;SDS011;9471;51.168;4.154;2022-09-09T08:16:41;10.15;;;2.47;;
18681;SDS011;9471;51.168;4.154;2022-09-09T08:19:10;14.07;;;2.90;;
18681;SDS011;9471;51.168;4.154;2022-09-09T08:21:39;13.75;;;2.55;;
18681;SDS011;9471;51.168;4.154;2022-09-09T08:24:07;14.98;;;3.22;;
18681;SDS011;9471;51.168;4.154;2022-09-09T08:26:36;15.32;;;2.80;;
18681;SDS011;9471;51.168;4.154;2022-09-09T08:29:05;14.00;;;2.80;;
18681;SDS011;9471;51.168;4.154;2022-09-09T08:31:36;12.60;;;2.72;;
18681;SDS011;9471;51.168;4.154;2022-09-09T08:34:04;12.07;;;2.65;;
18681;SDS011;9471;51.168;4.154;2022-09-09T08:36:33;15.25;;;2.95;;
18681;SDS011;9471;51.168;4.154;2022-09-09T08:39:03;12.15;;;2.67;;
18681;SDS011;9471;51.168;4.154;2022-09-09T08:41:35;10.93;;;2.22;;
18681;SDS011;9471;51.168;4.154;2022-09-09T08:44:09;9.93;;;3.03;;
18681;SDS011;9471;51.168;4.154;2022-09-09T08:46:47;12.23;;;2.47;;
18681;SDS011;9471;51.168;4.154;2022-09-09T08:49:31;13.05;;;2.63;;
18681;SDS011;9471;51.168;4.154;2022-09-09T08:52:08;12.13;;;2.40;;
18681;SDS011;9471;51.168;4.154;2022-09-09T08:54:45;16.88;;;3.00;;
18681;SDS011;9471;51.168;4.154;2022-09-09T08:57:14;15.40;;;2.65;;
18681;SDS011;9471;51.168;4.154;2022-09-09T08:59:47;13.65;;;2.42;;
18681;SDS011;9471;51.168;4.154;2022-09-09T09:02:17;11.48;;;2.03;;
18681;SDS011;9471;51.168;4.154;2022-09-09T09:05:00;16.00;;;2.75;;
18681;SDS011;9471;51.168;4.154;2022-09-09T09:07:39;12.18;;;2.63;;
18681;SDS011;9471;51.168;4.154;2022-09-09T09:10:20;9.75;;;2.25;;
18681;SDS011;9471;51.168;4.154;2022-09-09T09:12:57;12.68;;;2.50;;
18681;SDS011;9471;51.168;4.154;2022-09-09T09:15:25;13.07;;;2.30;;
18681;SDS011;9471;51.168;4.154;2022-09-09T09:17:55;11.10;;;2.47;;
18681;SDS011;9471;51.168;4.154;2022-09-09T09:20:23;13.38;;;2.40;;
18681;SDS011;9471;51.168;4.154;2022-09-09T09:22:56;14.30;;;3.05;;
18681;SDS011;9471;51.168;4.154;2022-09-09T09:25:31;11.50;;;1.80;;
18681;SDS011;9471;51.168;4.154;2022-09-09T09:28:07;10.75;;;2.50;;
18681;SDS011;9471;51.168;4.154;2022-09-09T09:30:42;13.00;;;2.53;;
18681;SDS011;9471;51.168;4.154;2022-09-09T09:33:18;12.38;;;2.30;;
18681;SDS011;9471;51.168;4.154;2022-09-09T09:35:50;12.27;;;2.08;;
18681;SDS011;9471;51.168;4.154;2022-09-09T09:38:19;12.05;;;2.40;;
18681;SDS011;9471;51.168;4.154;2022-09-09T09:40:52;11.80;;;2.42;;
18681;SDS011;9471;51.168;4.154;2022-09-09T09:43:24;13.63;;;2.88;;
18681;SDS011;9471;51.168;4.154;2022-09-09T09:45:53;11.45;;;2.53;;
18681;SDS011;9471;51.168;4.154;2022-09-09T09:48:20;11.10;;;2.42;;
18681;SDS011;9471;51.168;4.154;2022-09-09T09:50:48;12.63;;;2.70;;
18681;SDS011;9471;51.168;4.154;2022-09-09T09:53:18;12.82;;;2.65;;
18681;SDS011;9471;51.168;4.154;2022-09-09T09:55:52;14.70;;;2.70;;
18681;SDS011;9471;51.168;4.154;2022-09-09T09:58:22;11.57;;;2.38;;
18681;SDS011;9471;51.168;4.154;2022-09-09T10:00:51;8.50;;;2.13;;
18681;SDS011;9471;51.168;4.154;2022-09-09T10:03:22;9.07;;;2.45;;
18681;SDS011;9471;51.168;4.154;2022-09-09T10:05:51;13.23;;;2.53;;
18681;SDS011;9471;51.168;4.154;2022-09-09T10:08:19;9.32;;;2.25;;
18681;SDS011;9471;51.168;4.154;2022-09-09T10:10:49;9.55;;;2.03;;
18681;SDS011;9471;51.168;4.154;2022-09-09T10:13:33;10.55;;;2.33;;
18681;SDS011;9471;51.168;4.154;2022-09-09T10:16:12;10.65;;;2.40;;
18681;SDS011;9471;51.168;4.154;2022-09-09T10:18:55;10.00;;;2.10;;
18681;SDS011;9471;51.168;4.154;2022-09-09T10:21:30;8.52;;;2.08;;
18681;SDS011;9471;51.168;4.154;2022-09-09T10:24:22;13.88;;;2.75;;
18681;SDS011;9471;51.168;4.154;2022-09-09T10:27:15;12.43;;;1.88;;
18681;SDS011;9471;51.168;4.154;2022-09-09T10:29:52;11.93;;;2.28;;
18681;SDS011;9471;51.168;4.154;2022-09-09T10:32:31;11.40;;;2.17;;
18681;SDS011;9471;51.168;4.154;2022-09-09T10:35:04;15.15;;;2.30;;
18681;SDS011;9471;51.168;4.154;2022-09-09T10:38:10;10.27;;;2.08;;
18681;SDS011;9471;51.168;4.154;2022-09-09T10:40:42;11.52;;;2.20;;
18681;SDS011;9471;51.168;4.154;2022-09-09T10:43:37;10.93;;;2.58;;
18681;SDS011;9471;51.168;4.154;2022-09-09T10:46:26;10.52;;;2.20;;
18681;SDS011;9471;51.168;4.154;2022-09-09T10:49:06;9.02;;;2.28;;
18681;SDS011;9471;51.168;4.154;2022-09-09T10:51:44;9.73;;;1.80;;
18681;SDS011;9471;51.168;4.154;2022-09-09T10:54:22;9.80;;;1.80;;
18681;SDS011;9471;51.168;4.154;2022-09-09T10:57:08;7.15;;;1.60;;
18681;SDS011;9471;51.168;4.154;2022-09-09T10:59:45;5.90;;;1.52;;
18681;SDS011;9471;51.168;4.154;2022-09-09T11:02:16;7.60;;;1.40;;
18681;SDS011;9471;51.168;4.154;2022-09-09T11:04:53;7.40;;;1.38;;
18681;SDS011;9471;51.168;4.154;2022-09-09T11:07:25;7.55;;;1.52;;
18681;SDS011;9471;51.168;4.154;2022-09-09T11:09:58;9.18;;;1.67;;
18681;SDS011;9471;51.168;4.154;2022-09-09T11:12:28;9.80;;;1.80;;
18681;SDS011;9471;51.168;4.154;2022-09-09T11:14:59;7.60;;;1.65;;
18681;SDS011;9471;51.168;4.154;2022-09-09T11:17:33;7.95;;;1.63;;
18681;SDS011;9471;51.168;4.154;2022-09-09T11:20:10;9.25;;;1.92;;
18681;SDS011;9471;51.168;4.154;2022-09-09T11:22:39;8.15;;;1.80;;
18681;SDS011;9471;51.168;4.154;2022-09-09T11:25:14;7.38;;;1.52;;
18681;SDS011;9471;51.168;4.154;2022-09-09T11:27:50;8.13;;;1.40;;
18681;SDS011;9471;51.168;4.154;2022-09-09T11:30:27;9.82;;;1.85;;
18681;SDS011;9471;51.168;4.154;2022-09-09T11:33:08;8.50;;;2.03;;
18681;SDS011;9471;51.168;4.154;2022-09-09T11:35:58;6.38;;;1.80;;
18681;SDS011;9471;51.168;4.154;2022-09-09T11:38:38;7.45;;;1.67;;
18681;SDS011;9471;51.168;4.154;2022-09-09T11:41:11;22.23;;;2.55;;
18681;SDS011;9471;51.168;4.154;2022-09-09T11:43:40;6.70;;;1.45;;
18681;SDS011;9471;51.168;4.154;2022-09-09T11:46:11;9.20;;;1.88;;
18681;SDS011;9471;51.168;4.154;2022-09-09T11:48:42;13.32;;;1.95;;
18681;SDS011;9471;51.168;4.154;2022-09-09T11:51:11;6.10;;;1.30;;
18681;SDS011;9471;51.168;4.154;2022-09-09T11:53:49;5.55;;;1.50;;
18681;SDS011;9471;51.168;4.154;2022-09-09T11:56:25;9.30;;;1.58;;
18681;SDS011;9471;51.168;4.154;2022-09-09T11:59:02;6.13;;;1.30;;
18681;SDS011;9471;51.168;4.154;2022-09-09T12:01:35;6.88;;;1.23;;
18681;SDS011;9471;51.168;4.154;2022-09-09T12:06:55;7.22;;;1.23;;
18681;SDS011;9471;51.168;4.154;2022-09-09T12:09:27;7.90;;;1.23;;
18681;SDS011;9471;51.168;4.154;2022-09-09T12:12:05;7.07;;;1.40;;
18681;SDS011;9471;51.168;4.154;2022-09-09T12:14:35;6.00;;;1.13;;
18681;SDS011;9471;51.168;4.154;2022-09-09T12:17:15;4.25;;;1.23;;
18681;SDS011;9471;51.168;4.154;2022-09-09T12:19:45;4.57;;;0.93;;
18681;SDS011;9471;51.168;4.154;2022-09-09T12:22:15;4.38;;;1.10;;
18681;SDS011;9471;51.168;4.154;2022-09-09T12:24:52;6.10;;;1.45;;
18681;SDS011;9471;51.168;4.154;2022-09-09T12:27:25;6.20;;;1.52;;
18681;SDS011;9471;51.168;4.154;2022-09-09T12:29:58;6.25;;;1.30;;
18681;SDS011;9471;51.168;4.154;2022-09-09T12:32:31;7.50;;;1.77;;
18681;SDS011;9471;51.168;4.154;2022-09-09T12:34:59;5.85;;;1.17;;
18681;SDS011;9471;51.168;4.154;2022-09-09T12:37:32;5.65;;;1.25;;
18681;SDS011;9471;51.168;4.154;2022-09-09T12:40:03;6.90;;;1.40;;
18681;SDS011;9471;51.168;4.154;2022-09-09T12:42:32;4.70;;;1.20;;
18681;SDS011;9471;51.168;4.154;2022-09-09T12:44:59;5.10;;;1.40;;
18681;SDS011;9471;51.168;4.154;2022-09-09T12:47:35;4.45;;;1.00;;
18681;SDS011;9471;51.168;4.154;2022-09-09T12:50:14;9.90;;;1.58;;
18681;SDS011;9471;51.168;4.154;2022-09-09T12:52:43;7.70;;;1.15;;
18681;SDS011;9471;51.168;4.154;2022-09-09T12:55:15;6.32;;;1.05;;
18681;SDS011;9471;51.168;4.154;2022-09-09T12:57:45;6.13;;;1.50;;
18681;SDS011;9471;51.168;4.154;2022-09-09T13:00:16;5.90;;;1.42;;
18681;SDS011;9471;51.168;4.154;2022-09-09T13:02:48;6.88;;;2.08;;
18681;SDS011;9471;51.168;4.154;2022-09-09T13:05:17;6.28;;;1.13;;
18681;SDS011;9471;51.168;4.154;2022-09-09T13:07:47;6.18;;;1.38;;
18681;SDS011;9471;51.168;4.154;2022-09-09T13:10:14;7.97;;;1.73;;
18681;SDS011;9471;51.168;4.154;2022-09-09T13:12:49;11.30;;;1.77;;
18681;SDS011;9471;51.168;4.154;2022-09-09T13:15:19;6.20;;;1.30;;
18681;SDS011;9471;51.168;4.154;2022-09-09T13:17:53;8.52;;;2.05;;
18681;SDS011;9471;51.168;4.154;2022-09-09T13:20:22;6.78;;;1.55;;
18681;SDS011;9471;51.168;4.154;2022-09-09T13:22:51;8.45;;;1.33;;
18681;SDS011;9471;51.168;4.154;2022-09-09T13:25:23;6.30;;;1.55;;
18681;SDS011;9471;51.168;4.154;2022-09-09T13:27:56;5.50;;;1.30;;
18681;SDS011;9471;51.168;4.154;2022-09-09T13:30:26;5.85;;;1.20;;
18681;SDS011;9471;51.168;4.154;2022-09-09T13:33:03;6.10;;;1.42;;
18681;SDS011;9471;51.168;4.154;2022-09-09T13:35:48;4.40;;;1.17;;
18681;SDS011;9471;51.168;4.154;2022-09-09T13:38:18;5.97;;;1.50;;
18681;SDS011;9471;51.168;4.154;2022-09-09T13:40:52;9.20;;;1.73;;
18681;SDS011;9471;51.168;4.154;2022-09-09T13:43:22;4.40;;;1.20;;
18681;SDS011;9471;51.168;4.154;2022-09-09T13:45:54;8.30;;;1.38;;
18681;SDS011;9471;51.168;4.154;2022-09-09T13:48:24;7.40;;;1.50;;
18681;SDS011;9471;51.168;4.154;2022-09-09T13:50:56;7.72;;;1.50;;
18681;SDS011;9471;51.168;4.154;2022-09-09T13:53:24;8.30;;;1.08;;
18681;SDS011;9471;51.168;4.154;2022-09-09T13:55:51;4.70;;;0.93;;
18681;SDS011;9471;51.168;4.154;2022-09-09T13:58:19;3.95;;;1.15;;
18681;SDS011;9471;51.168;4.154;2022-09-09T14:00:48;6.88;;;1.10;;
18681;SDS011;9471;51.168;4.154;2022-09-09T14:03:15;7.95;;;1.23;;
18681;SDS011;9471;51.168;4.154;2022-09-09T14:05:44;6.45;;;1.25;;
18681;SDS011;9471;51.168;4.154;2022-09-09T14:08:15;7.97;;;1.73;;
18681;SDS011;9471;51.168;4.154;2022-09-09T14:10:47;8.27;;;2.28;;
18681;SDS011;9471;51.168;4.154;2022-09-09T14:13:15;7.15;;;1.75;;
18681;SDS011;9471;51.168;4.154;2022-09-09T14:15:42;7.57;;;1.60;;
18681;SDS011;9471;51.168;4.154;2022-09-09T14:18:09;7.28;;;1.60;;
18681;SDS011;9471;51.168;4.154;2022-09-09T14:20:39;7.60;;;1.35;;
18681;SDS011;9471;51.168;4.154;2022-09-09T14:23:10;7.07;;;1.63;;
18681;SDS011;9471;51.168;4.154;2022-09-09T14:25:41;7.57;;;1.40;;
18681;SDS011;9471;51.168;4.154;2022-09-09T14:28:09;5.47;;;1.27;;
18681;SDS011;9471;51.168;4.154;2022-09-09T14:30:38;6.90;;;1.45;;
18681;SDS011;9471;51.168;4.154;2022-09-09T14:33:06;3.17;;;1.05;;
18681;SDS011;9471;51.168;4.154;2022-09-09T14:35:34;8.45;;;1.60;;
18681;SDS011;9471;51.168;4.154;2022-09-09T14:38:02;6.25;;;1.23;;
18681;SDS011;9471;51.168;4.154;2022-09-09T14:40:33;8.13;;;1.60;;
18681;SDS011;9471;51.168;4.154;2022-09-09T14:43:00;8.13;;;1.17;;
18681;SDS011;9471;51.168;4.154;2022-09-09T14:45:28;5.70;;;1.27;;
18681;SDS011;9471;51.168;4.154;2022-09-09T14:47:58;4.70;;;1.02;;
18681;SDS011;9471;51.168;4.154;2022-09-09T14:50:26;7.95;;;1.20;;
18681;SDS011;9471;51.168;4.154;2022-09-09T14:52:53;6.38;;;1.23;;
18681;SDS011;9471;51.168;4.154;2022-09-09T14:55:20;3.97;;;1.15;;
18681;SDS011;9471;51.168;4.154;2022-09-09T14:57:49;6.10;;;1.40;;
18681;SDS011;9471;51.168;4.154;2022-09-09T15:00:16;4.38;;;1.20;;
18681;SDS011;9471;51.168;4.154;2022-09-09T15:02:43;6.03;;;1.50;;
18681;SDS011;9471;51.168;4.154;2022-09-09T15:05:10;4.90;;;1.55;;
18681;SDS011;9471;51.168;4.154;2022-09-09T15:07:37;7.10;;;1.58;;
18681;SDS011;9471;51.168;4.154;2022-09-09T15:10:04;4.70;;;1.20;;
18681;SDS011;9471;51.168;4.154;2022-09-09T15:12:32;4.97;;;1.30;;
18681;SDS011;9471;51.168;4.154;2022-09-09T15:15:02;6.47;;;1.52;;
18681;SDS011;9471;51.168;4.154;2022-09-09T15:17:30;5.78;;;1.35;;
18681;SDS011;9471;51.168;4.154;2022-09-09T15:19:57;6.05;;;1.02;;